createdAt,value
2023-02-15T00:00:02.585Z,18.48
2023-02-15T00:02:29.203Z,19.58
2023-02-15T00:04:56.994Z,18.65
2023-02-15T00:07:23.685Z,18.35
2023-02-15T00:09:50.503Z,18.60
2023-02-15T00:12:17.636Z,17.65
2023-02-15T00:14:44.623Z,18.77
2023-02-15T00:17:11.528Z,16.70
2023-02-15T00:19:38.214Z,16.10
2023-02-15T00:22:04.838Z,16.52
2023-02-15T00:24:31.475Z,17.20
2023-02-15T00:26:59.401Z,16.58
2023-02-15T00:29:26.200Z,18.23
2023-02-15T00:31:53.432Z,17.55
2023-02-15T00:34:23.204Z,18.60
2023-02-15T00:36:50.510Z,18.15
2023-02-15T00:39:18.209Z,18.88
2023-02-15T00:41:45.562Z,19.05
2023-02-15T00:44:12.785Z,18.55
2023-02-15T00:46:39.740Z,18.25
2023-02-15T00:49:06.751Z,17.73
2023-02-15T00:51:33.909Z,18.67
2023-02-15T00:54:00.570Z,17.48
2023-02-15T00:56:29.385Z,17.95
2023-02-15T00:58:56.224Z,19.23
2023-02-15T01:01:23.261Z,17.88
2023-02-15T01:03:50.486Z,19.35
2023-02-15T01:06:18.318Z,18.83
2023-02-15T01:08:46.933Z,15.85
2023-02-15T01:11:22.664Z,18.20
2023-02-15T01:13:55.159Z,18.83
2023-02-15T01:16:22.988Z,16.90
2023-02-15T01:18:50.095Z,16.83
2023-02-15T01:21:20.466Z,16.65
2023-02-15T01:23:47.423Z,17.40
2023-02-15T01:26:14.907Z,16.65
2023-02-15T01:28:41.818Z,17.75
2023-02-15T01:31:10.823Z,19.02
2023-02-15T01:33:38.065Z,17.35
2023-02-15T01:36:05.492Z,15.68
2023-02-15T01:38:32.670Z,16.17
2023-02-15T01:41:19.285Z,17.73
2023-02-15T01:43:49.450Z,16.92
2023-02-15T01:46:18.656Z,17.80
2023-02-15T01:48:48.820Z,18.40
2023-02-15T01:51:20.272Z,18.52
2023-02-15T01:53:57.731Z,17.70
2023-02-15T01:56:27.735Z,17.63
2023-02-15T01:58:56.584Z,17.00
2023-02-15T02:01:25.879Z,19.13
2023-02-15T02:04:16.295Z,18.17
2023-02-15T02:06:42.998Z,17.95
2023-02-15T02:09:10.991Z,18.63
2023-02-15T02:11:39.925Z,17.85
2023-02-15T02:14:06.684Z,17.60
2023-02-15T02:16:59.580Z,17.10
2023-02-15T02:19:53.949Z,16.90
2023-02-15T02:22:48.486Z,15.70
2023-02-15T02:25:44.401Z,17.50
2023-02-15T02:28:13.852Z,17.67
2023-02-15T02:31:07.872Z,19.10
2023-02-15T02:33:48.276Z,16.50
2023-02-15T02:36:26.039Z,17.88
2023-02-15T02:39:11.065Z,17.83
2023-02-15T02:42:03.597Z,18.27
2023-02-15T02:44:45.425Z,18.83
2023-02-15T02:47:30.856Z,16.92
2023-02-15T02:50:07.139Z,18.33
2023-02-15T02:52:40.847Z,17.60
2023-02-15T02:55:36.801Z,16.85
2023-02-15T02:58:34.625Z,18.05
2023-02-15T03:01:09.930Z,18.23
2023-02-15T03:03:44.832Z,18.27
2023-02-15T03:06:19.256Z,16.13
2023-02-15T03:08:55.555Z,17.02
2023-02-15T03:11:22.316Z,18.65
2023-02-15T03:13:49.987Z,16.88
2023-02-15T03:16:28.130Z,16.13
2023-02-15T03:19:09.329Z,18.15
2023-02-15T03:21:50.453Z,17.73
2023-02-15T03:24:22.548Z,16.65
2023-02-15T03:26:52.640Z,17.08
2023-02-15T03:29:22.739Z,15.40
2023-02-15T03:31:55.094Z,16.80
2023-02-15T03:34:22.045Z,16.38
2023-02-15T03:37:07.296Z,17.75
2023-02-15T03:39:53.529Z,18.08
2023-02-15T03:42:31.854Z,17.52
2023-02-15T03:45:10.853Z,16.67
2023-02-15T03:47:41.197Z,19.90
2023-02-15T03:50:35.521Z,16.30
2023-02-15T03:53:04.820Z,16.98
2023-02-15T03:55:31.941Z,19.70
2023-02-15T03:58:17.248Z,18.58
2023-02-15T04:01:11.315Z,17.05
2023-02-15T04:03:45.664Z,15.82
2023-02-15T04:06:12.342Z,16.70
2023-02-15T04:08:57.733Z,18.83
2023-02-15T04:11:24.363Z,17.25
2023-02-15T04:13:57.223Z,18.10
2023-02-15T04:16:25.045Z,16.45
2023-02-15T04:19:10.562Z,18.25
2023-02-15T04:21:55.897Z,19.15
2023-02-15T04:24:41.228Z,20.65
2023-02-15T04:27:07.912Z,19.33
2023-02-15T04:29:34.608Z,19.48
2023-02-15T04:32:02.530Z,18.13
2023-02-15T04:34:29.246Z,21.60
2023-02-15T04:36:55.883Z,20.17
2023-02-15T04:39:22.510Z,19.50
2023-02-15T04:41:49.146Z,17.65
2023-02-15T04:44:16.136Z,18.45
2023-02-15T04:46:42.782Z,18.45
2023-02-15T04:49:09.990Z,17.15
2023-02-15T04:51:36.610Z,19.30
2023-02-15T04:54:03.362Z,18.77
2023-02-15T04:56:31.006Z,19.30
2023-02-15T04:58:57.864Z,18.90
2023-02-15T05:01:24.578Z,21.35
2023-02-15T05:03:51.261Z,17.85
2023-02-15T05:06:18.054Z,21.10
2023-02-15T05:08:44.649Z,19.23
2023-02-15T05:11:11.423Z,18.48
2023-02-15T05:13:38.090Z,19.00
2023-02-15T05:16:04.944Z,20.30
2023-02-15T05:18:31.614Z,20.40
2023-02-15T05:20:58.264Z,18.13
2023-02-15T05:23:24.915Z,18.85
2023-02-15T05:26:11.440Z,16.80
2023-02-15T05:28:39.692Z,18.02
2023-02-15T05:31:15.667Z,18.30
2023-02-15T05:33:43.374Z,18.15
2023-02-15T05:36:10.372Z,17.55
2023-02-15T05:38:40.672Z,16.90
2023-02-15T05:41:08.694Z,16.17
2023-02-15T05:43:35.704Z,17.27
2023-02-15T05:46:03.453Z,17.75
2023-02-15T05:48:30.980Z,18.35
2023-02-15T05:51:02.457Z,16.80
2023-02-15T05:53:31.175Z,15.50
2023-02-15T05:56:00.634Z,17.33
2023-02-15T05:58:28.303Z,17.90
2023-02-15T06:00:55.942Z,17.40
2023-02-15T06:03:23.977Z,16.85
2023-02-15T06:05:50.659Z,16.02
2023-02-15T06:08:17.523Z,15.05
2023-02-15T06:10:44.176Z,14.23
2023-02-15T06:13:10.809Z,15.93
2023-02-15T06:15:37.478Z,16.20
2023-02-15T06:18:04.525Z,17.00
2023-02-15T06:20:31.245Z,16.73
2023-02-15T06:22:57.872Z,16.35
2023-02-15T06:25:25.489Z,15.63
2023-02-15T06:27:52.182Z,15.93
2023-02-15T06:30:19.015Z,15.82
2023-02-15T06:32:45.704Z,16.10
2023-02-15T06:35:12.543Z,18.25
2023-02-15T06:37:40.069Z,16.90
2023-02-15T06:40:07.764Z,15.40
2023-02-15T06:42:34.385Z,14.35
2023-02-15T06:45:01.515Z,14.48
2023-02-15T06:47:28.156Z,14.98
2023-02-15T06:49:54.808Z,16.27
2023-02-15T06:52:21.442Z,14.23
2023-02-15T06:54:48.062Z,17.23
2023-02-15T06:57:14.802Z,15.05
2023-02-15T06:59:41.468Z,14.13
2023-02-15T07:02:10.254Z,15.95
2023-02-15T07:04:36.950Z,15.70
2023-02-15T07:07:04.017Z,13.80
2023-02-15T07:09:30.655Z,15.13
2023-02-15T07:12:15.873Z,13.93
2023-02-15T07:14:42.531Z,13.95
2023-02-15T07:17:18.237Z,15.00
2023-02-15T07:19:56.105Z,13.73
2023-02-15T07:22:22.885Z,13.55
2023-02-15T07:24:50.093Z,13.48
2023-02-15T07:27:16.911Z,12.25
2023-02-15T07:29:43.515Z,13.45
2023-02-15T07:32:10.191Z,14.20
2023-02-15T07:34:36.876Z,13.55
2023-02-15T07:37:03.501Z,15.82
2023-02-15T07:39:30.137Z,13.93
2023-02-15T07:41:56.780Z,13.80
2023-02-15T07:44:23.496Z,15.27
2023-02-15T07:46:50.153Z,15.35
2023-02-15T07:49:16.785Z,13.80
2023-02-15T07:51:43.432Z,13.40
2023-02-15T07:54:10.060Z,13.73
2023-02-15T07:56:37.192Z,15.15
2023-02-15T07:59:04.100Z,15.75
2023-02-15T08:01:33.660Z,14.48
2023-02-15T08:04:00.503Z,13.70
2023-02-15T08:06:29.628Z,14.55
2023-02-15T08:08:56.599Z,14.50
2023-02-15T08:11:34.947Z,14.88
2023-02-15T08:14:21.380Z,14.65
2023-02-15T08:16:56.757Z,16.38
2023-02-15T08:19:24.919Z,13.55
2023-02-15T08:21:54.402Z,14.40
2023-02-15T08:24:22.691Z,15.40
2023-02-15T08:26:50.585Z,13.68
2023-02-15T08:29:26.045Z,13.65
2023-02-15T08:32:03.000Z,14.10
2023-02-15T08:34:32.010Z,13.27
2023-02-15T08:36:58.705Z,13.60
2023-02-15T08:39:25.394Z,13.95
2023-02-15T08:41:52.047Z,13.95
2023-02-15T08:44:20.017Z,14.77
2023-02-15T08:46:47.892Z,14.25
2023-02-15T08:49:18.831Z,14.43
2023-02-15T08:51:45.859Z,15.52
2023-02-15T08:54:19.436Z,13.52
2023-02-15T08:56:46.467Z,13.75
2023-02-15T08:59:22.561Z,12.93
2023-02-15T09:01:51.028Z,14.15
2023-02-15T09:04:18.351Z,13.73
2023-02-15T09:06:48.794Z,11.70
2023-02-15T09:09:16.843Z,13.68
2023-02-15T09:11:45.797Z,14.00
2023-02-15T09:14:14.969Z,15.40
2023-02-15T09:16:47.140Z,13.55
2023-02-15T09:19:14.148Z,13.88
2023-02-15T09:21:41.109Z,15.07
2023-02-15T09:24:13.491Z,16.05
2023-02-15T09:26:42.950Z,15.15
2023-02-15T09:29:10.719Z,14.10
2023-02-15T09:31:49.855Z,15.52
2023-02-15T09:34:19.911Z,14.90
2023-02-15T09:36:47.681Z,13.95
2023-02-15T09:39:25.687Z,16.95
2023-02-15T09:42:42.897Z,15.10
2023-02-15T09:45:34.799Z,17.67
2023-02-15T09:48:37.506Z,16.55
2023-02-15T09:51:20.228Z,19.63
2023-02-15T09:54:30.307Z,16.48
2023-02-15T09:57:01.679Z,17.80
2023-02-15T10:00:02.538Z,18.30
2023-02-15T10:03:01.623Z,18.05
2023-02-15T10:06:11.834Z,18.80
2023-02-15T10:08:41.230Z,20.92
2023-02-15T10:11:38.626Z,23.85
2023-02-15T10:14:16.258Z,20.85
2023-02-15T10:17:32.781Z,20.70
2023-02-15T10:20:12.872Z,21.50
2023-02-15T10:22:58.150Z,20.65
2023-02-15T10:25:35.662Z,22.52
2023-02-15T10:28:20.199Z,21.05
2023-02-15T10:30:52.351Z,22.55
2023-02-15T10:33:21.704Z,19.85
2023-02-15T10:36:14.550Z,19.77
2023-02-15T10:38:48.364Z,20.60
2023-02-15T10:41:47.161Z,20.73
2023-02-15T10:44:41.488Z,22.17
2023-02-15T10:47:39.254Z,19.10
2023-02-15T10:50:27.475Z,19.17
2023-02-15T10:52:55.623Z,16.98
2023-02-15T10:55:40.065Z,18.50
2023-02-15T10:58:31.790Z,19.25
2023-02-15T11:01:11.684Z,19.88
2023-02-15T11:04:17.511Z,17.38
2023-02-15T11:06:52.215Z,18.33
2023-02-15T11:09:21.632Z,16.83
2023-02-15T11:11:56.529Z,19.00
2023-02-15T11:14:24.179Z,19.40
2023-02-15T11:16:56.400Z,18.88
2023-02-15T11:19:29.529Z,17.35
2023-02-15T11:22:01.603Z,17.67
2023-02-15T11:24:31.627Z,18.10
2023-02-15T11:27:04.271Z,19.33
2023-02-15T11:29:53.057Z,18.70
2023-02-15T11:32:39.626Z,18.38
2023-02-15T11:35:12.410Z,17.75
2023-02-15T11:37:47.042Z,18.75
2023-02-15T11:40:25.641Z,17.40
2023-02-15T11:42:56.219Z,19.27
2023-02-15T11:45:23.309Z,20.00
2023-02-15T11:47:50.069Z,17.88
2023-02-15T11:50:23.324Z,19.85
2023-02-15T11:52:52.872Z,20.73
2023-02-15T11:55:23.566Z,19.92
2023-02-15T11:58:02.731Z,18.10
2023-02-15T12:00:40.454Z,19.35
2023-02-15T12:03:24.274Z,20.52
2023-02-15T12:05:57.255Z,20.50
2023-02-15T12:08:24.752Z,21.67
2023-02-15T12:11:05.086Z,22.48
2023-02-15T12:13:31.712Z,19.20
2023-02-15T12:16:00.190Z,21.73
2023-02-15T12:18:40.002Z,22.55
2023-02-15T12:21:14.311Z,24.60
2023-02-15T12:23:49.273Z,21.33
2023-02-15T12:26:24.226Z,22.95
2023-02-15T12:28:53.249Z,21.55
2023-02-15T12:31:42.746Z,20.42
2023-02-15T12:34:47.427Z,24.80
2023-02-15T12:37:22.031Z,20.60
2023-02-15T12:39:57.436Z,25.15
2023-02-15T12:42:25.655Z,26.20
2023-02-15T12:44:59.930Z,25.20
2023-02-15T12:47:30.692Z,27.13
2023-02-15T12:50:17.880Z,23.48
2023-02-15T12:52:49.679Z,24.90
2023-02-15T12:55:30.395Z,24.20
2023-02-15T12:58:27.669Z,26.02
2023-02-15T13:01:13.107Z,27.05
2023-02-15T13:04:02.226Z,24.73
2023-02-15T13:06:31.958Z,27.15
2023-02-15T13:09:26.427Z,26.52
2023-02-15T13:11:53.945Z,23.80
2023-02-15T13:14:32.704Z,26.42
2023-02-15T13:17:03.828Z,27.63
2023-02-15T13:19:35.980Z,25.52
2023-02-15T13:22:07.507Z,27.13
2023-02-15T13:24:41.790Z,26.42
2023-02-15T13:27:18.746Z,26.85
2023-02-15T13:29:51.735Z,25.73
2023-02-15T13:32:29.830Z,26.83
2023-02-15T13:34:59.442Z,27.70
2023-02-15T13:37:35.147Z,29.70
2023-02-15T13:40:15.527Z,27.52
2023-02-15T13:42:47.121Z,28.10
2023-02-15T13:45:38.972Z,28.98
2023-02-15T13:48:36.914Z,30.83
2023-02-15T13:51:11.547Z,27.98
2023-02-15T13:53:57.888Z,29.77
2023-02-15T13:57:02.002Z,29.85
2023-02-15T14:00:15.404Z,27.60
2023-02-15T14:03:00.504Z,28.42
2023-02-15T14:05:49.475Z,27.00
2023-02-15T14:08:30.606Z,27.08
2023-02-15T14:11:28.398Z,26.10
2023-02-15T14:14:41.899Z,27.88
2023-02-15T14:17:26.670Z,28.95
2023-02-15T14:20:03.648Z,27.83
2023-02-15T14:22:33.067Z,29.35
2023-02-15T14:25:21.438Z,27.02
2023-02-15T14:28:05.944Z,31.80
2023-02-15T14:30:46.689Z,31.50
2023-02-15T14:33:37.031Z,29.98
2023-02-15T14:36:07.400Z,28.00
2023-02-15T14:39:06.619Z,26.08
2023-02-15T14:41:50.691Z,29.52
2023-02-15T14:44:30.349Z,28.42
2023-02-15T14:47:18.548Z,26.70
2023-02-15T14:49:45.190Z,27.98
2023-02-15T14:52:12.809Z,28.67
2023-02-15T14:54:39.392Z,27.88
2023-02-15T14:57:07.342Z,29.52
2023-02-15T14:59:58.347Z,29.35
2023-02-15T15:02:41.686Z,30.35
2023-02-15T15:05:15.298Z,29.00
2023-02-15T15:07:51.510Z,30.45
2023-02-15T15:10:18.168Z,27.40
2023-02-15T15:12:55.757Z,28.25
2023-02-15T15:15:28.473Z,28.65
2023-02-15T15:18:09.054Z,25.00
2023-02-15T15:20:40.534Z,28.02
2023-02-15T15:23:40.917Z,27.33
2023-02-15T15:26:29.101Z,27.08
2023-02-15T15:28:58.625Z,29.58
2023-02-15T15:31:35.465Z,28.42
2023-02-15T15:34:24.591Z,26.75
2023-02-15T15:37:19.653Z,26.10
2023-02-15T15:40:07.788Z,25.83
2023-02-15T15:42:51.960Z,25.73
2023-02-15T15:45:56.109Z,26.38
2023-02-15T15:48:38.945Z,24.95
2023-02-15T15:51:31.901Z,28.67
2023-02-15T15:53:58.828Z,29.17
2023-02-15T15:56:32.065Z,28.70
2023-02-15T15:59:06.531Z,27.00
2023-02-15T16:01:48.069Z,29.65
2023-02-15T16:04:26.382Z,27.40
2023-02-15T16:06:53.301Z,25.90
2023-02-15T16:09:25.735Z,26.08
2023-02-15T16:12:01.353Z,25.52
2023-02-15T16:14:33.189Z,27.58
2023-02-15T16:17:03.123Z,26.85
2023-02-15T16:19:36.546Z,26.15
2023-02-15T16:22:04.756Z,27.00
2023-02-15T16:25:02.437Z,28.58
2023-02-15T16:27:36.550Z,24.05
2023-02-15T16:30:33.444Z,27.90
2023-02-15T16:33:07.725Z,24.77
2023-02-15T16:35:35.855Z,25.60
2023-02-15T16:38:03.327Z,28.63
2023-02-15T16:40:49.261Z,25.75
2023-02-15T16:43:24.712Z,24.40
2023-02-15T16:45:52.094Z,23.67
2023-02-15T16:48:24.489Z,25.52
2023-02-15T16:51:01.200Z,27.30
2023-02-15T16:53:30.078Z,24.58
2023-02-15T16:56:05.949Z,26.40
2023-02-15T16:58:46.960Z,25.77
2023-02-15T17:01:15.675Z,25.58
2023-02-15T17:03:43.235Z,26.80
2023-02-15T17:06:39.472Z,29.55
2023-02-15T17:09:19.323Z,27.35
2023-02-15T17:11:46.032Z,26.30
2023-02-15T17:14:18.898Z,26.63
2023-02-15T17:16:50.594Z,28.75
2023-02-15T17:19:25.294Z,25.08
2023-02-15T17:21:55.704Z,25.02
2023-02-15T17:24:40.033Z,27.02
2023-02-15T17:27:13.972Z,27.60
2023-02-15T17:29:45.450Z,26.23
2023-02-15T17:32:30.917Z,27.65
2023-02-15T17:34:58.607Z,27.65
2023-02-15T17:37:29.291Z,29.98
2023-02-15T17:39:57.326Z,24.48
2023-02-15T17:42:23.982Z,27.63
2023-02-15T17:44:50.766Z,25.83
2023-02-15T17:47:20.668Z,27.98
2023-02-15T17:49:50.002Z,27.15
2023-02-15T17:52:18.277Z,28.25
2023-02-15T17:55:03.941Z,29.65
2023-02-15T17:57:31.441Z,26.48
2023-02-15T18:00:16.738Z,28.52
2023-02-15T18:03:02.556Z,27.02
2023-02-15T18:05:47.936Z,25.95
2023-02-15T18:08:34.395Z,28.42
2023-02-15T18:11:20.527Z,30.45
2023-02-15T18:13:47.410Z,29.48
2023-02-15T18:16:22.591Z,26.77
2023-02-15T18:18:49.813Z,28.40
2023-02-15T18:21:16.596Z,28.17
2023-02-15T18:23:43.340Z,29.35
2023-02-15T18:26:17.455Z,28.75
2023-02-15T18:28:44.097Z,29.48
2023-02-15T18:31:11.852Z,26.98
2023-02-15T18:33:50.548Z,26.52
2023-02-15T18:36:23.144Z,26.50
2023-02-15T18:38:50.277Z,26.27
2023-02-15T18:41:19.409Z,24.80
2023-02-15T18:43:48.824Z,26.60
2023-02-15T18:46:16.971Z,28.48
2023-02-15T18:48:44.449Z,28.02
2023-02-15T18:51:29.322Z,25.85
2023-02-15T18:54:02.543Z,25.40
2023-02-15T18:56:30.823Z,26.40
2023-02-15T18:58:57.429Z,25.95
2023-02-15T19:01:24.214Z,27.92
2023-02-15T19:03:51.882Z,27.75
2023-02-15T19:06:21.673Z,26.70
2023-02-15T19:08:50.721Z,29.95
2023-02-15T19:11:20.297Z,27.55
2023-02-15T19:13:48.776Z,30.55
2023-02-15T19:16:31.474Z,30.80
2023-02-15T19:18:58.782Z,26.60
2023-02-15T19:21:27.134Z,31.77
2023-02-15T19:23:58.024Z,30.85
2023-02-15T19:26:36.307Z,30.05
2023-02-15T19:29:13.918Z,28.73
2023-02-15T19:31:41.105Z,27.25
2023-02-15T19:34:16.661Z,28.90
2023-02-15T19:36:46.489Z,32.28
2023-02-15T19:39:40.210Z,27.95
2023-02-15T19:42:11.744Z,28.27
2023-02-15T19:44:43.433Z,28.50
2023-02-15T19:47:12.945Z,29.25
2023-02-15T19:49:39.881Z,27.17
2023-02-15T19:52:13.617Z,29.65
2023-02-15T19:54:40.275Z,29.23
2023-02-15T19:57:10.587Z,33.08
2023-02-15T19:59:37.286Z,26.83
2023-02-15T20:02:04.985Z,28.27
2023-02-15T20:04:31.645Z,27.23
2023-02-15T20:07:01.351Z,29.15
2023-02-15T20:09:33.786Z,33.17
2023-02-15T20:12:01.071Z,29.10
2023-02-15T20:14:27.718Z,29.85
2023-02-15T20:16:54.345Z,29.45
2023-02-15T20:19:21.016Z,31.38
2023-02-15T20:21:52.041Z,31.98
2023-02-15T20:24:21.168Z,32.22
2023-02-15T20:26:47.827Z,29.50
2023-02-15T20:29:16.366Z,31.48
2023-02-15T20:31:43.261Z,30.25
2023-02-15T20:34:10.289Z,30.30
2023-02-15T20:36:38.075Z,31.15
2023-02-15T20:39:15.472Z,28.73
2023-02-15T20:41:47.661Z,30.92
2023-02-15T20:44:17.327Z,30.48
2023-02-15T20:46:44.072Z,28.58
2023-02-15T20:49:10.790Z,35.55
2023-02-15T20:51:37.789Z,32.33
2023-02-15T20:54:16.161Z,28.90
2023-02-15T20:56:43.311Z,32.75
2023-02-15T20:59:19.938Z,29.02
2023-02-15T21:01:47.544Z,29.67
2023-02-15T21:04:23.674Z,29.98
2023-02-15T21:06:50.355Z,32.08
2023-02-15T21:09:17.007Z,29.05
2023-02-15T21:11:44.827Z,31.00
2023-02-15T21:14:20.207Z,29.70
2023-02-15T21:16:48.055Z,34.60
2023-02-15T21:19:21.201Z,32.85
2023-02-15T21:21:50.772Z,34.70
2023-02-15T21:24:20.695Z,32.40
2023-02-15T21:26:48.271Z,32.72
2023-02-15T21:29:23.303Z,34.80
2023-02-15T21:31:50.068Z,32.08
2023-02-15T21:34:19.961Z,30.65
2023-02-15T21:36:48.381Z,32.50
2023-02-15T21:39:26.507Z,31.75
2023-02-15T21:42:13.769Z,30.42
2023-02-15T21:44:59.112Z,29.30
2023-02-15T21:47:47.528Z,30.45
2023-02-15T21:50:37.151Z,31.00
2023-02-15T21:53:05.585Z,30.50
2023-02-15T21:55:32.847Z,31.67
2023-02-15T21:58:00.493Z,30.02
2023-02-15T22:00:28.553Z,29.95
2023-02-15T22:02:58.160Z,31.20
2023-02-15T22:05:32.114Z,30.15
2023-02-15T22:07:58.991Z,33.92
2023-02-15T22:10:30.223Z,27.13
2023-02-15T22:12:57.240Z,30.13
2023-02-15T22:15:26.270Z,29.75
2023-02-15T22:17:53.502Z,30.58
2023-02-15T22:20:24.016Z,30.83
2023-02-15T22:22:51.822Z,32.75
2023-02-15T22:25:21.912Z,29.20
2023-02-15T22:27:50.344Z,33.83
2023-02-15T22:30:20.095Z,30.33
2023-02-15T22:32:47.020Z,31.67
2023-02-15T22:35:24.080Z,32.75
2023-02-15T22:37:50.741Z,30.13
2023-02-15T22:40:18.691Z,32.17
2023-02-15T22:42:47.464Z,34.03
2023-02-15T22:45:19.197Z,31.02
2023-02-15T22:47:48.331Z,30.80
2023-02-15T22:50:25.296Z,30.30
2023-02-15T22:52:52.512Z,32.60
2023-02-15T22:55:23.276Z,30.85
2023-02-15T22:57:53.251Z,28.08
2023-02-15T23:00:26.376Z,31.55
2023-02-15T23:02:54.610Z,28.95
2023-02-15T23:05:30.905Z,31.17
2023-02-15T23:07:57.987Z,30.35
2023-02-15T23:10:26.486Z,29.73
2023-02-15T23:13:17.147Z,30.75
2023-02-15T23:15:50.766Z,31.92
2023-02-15T23:18:22.989Z,27.42
2023-02-15T23:21:01.847Z,32.63
2023-02-15T23:23:38.121Z,32.17
2023-02-15T23:26:10.664Z,31.63
2023-02-15T23:28:38.416Z,29.63
2023-02-15T23:31:24.892Z,29.98
2023-02-15T23:33:53.079Z,29.90
2023-02-15T23:36:35.439Z,28.08
2023-02-15T23:39:53.398Z,33.58
2023-02-15T23:42:24.590Z,27.83
2023-02-15T23:44:51.683Z,29.58
2023-02-15T23:47:50.549Z,27.13
2023-02-15T23:50:23.053Z,21.05
2023-02-15T23:52:50.970Z,22.67
2023-02-15T23:55:18.137Z,22.60
2023-02-15T23:57:45.383Z,22.35
